Time;durP1;ratioP1;P1;durP2;ratioP2;P2;SDS_P1;SDS_P2;PMS_P1;PMS_P2;Temp;Humidity;BMP_temperature;BMP_pressure;BME280_temperature;BME280_humidity;BME280_pressure;Samples;Min_cycle;Max_cycle;Signal;HPM_P1;HPM_P2
2022/06/27 00:01:37;;;;;;;4.85;3.72;;;26.70;54.90;;;;;;6159887;28;80743;-74
2022/06/27 00:04:38;;;;;;;4.93;3.70;;;26.60;54.70;;;;;;6160150;28;80077;-72
2022/06/27 00:07:38;;;;;;;4.35;3.40;;;26.70;54.80;;;;;;6159842;28;81806;-73
2022/06/27 00:10:39;;;;;;;6.53;3.90;;;26.70;55.00;;;;;;6159538;28;80756;-73
2022/06/27 00:13:39;;;;;;;12.48;4.80;;;26.70;54.80;;;;;;6160108;28;80412;-73
2022/06/27 00:16:40;;;;;;;6.82;3.67;;;26.70;55.20;;;;;;6152253;28;80925;-70
2022/06/27 00:19:40;;;;;;;5.07;3.15;;;26.70;55.40;;;;;;6159499;28;80225;-71
2022/06/27 00:22:41;;;;;;;5.30;3.58;;;26.70;55.20;;;;;;6158606;28;80398;-74
2022/06/27 00:25:41;;;;;;;6.80;4.13;;;26.70;55.30;;;;;;6159038;28;80050;-72
2022/06/27 00:28:42;;;;;;;5.43;4.13;;;26.70;55.10;;;;;;6150519;28;81546;-73
2022/06/27 00:31:42;;;;;;;5.03;3.72;;;26.60;56.30;;;;;;6136003;28;82414;-77
2022/06/27 00:34:43;;;;;;;10.07;4.07;;;26.70;55.10;;;;;;6156968;28;82213;-76
2022/06/27 00:37:44;;;;;;;5.75;3.90;;;26.70;55.40;;;;;;6155512;28;83022;-73
2022/06/27 00:40:44;;;;;;;5.45;3.95;;;26.60;55.40;;;;;;6144736;28;81303;-74
2022/06/27 00:43:45;;;;;;;4.40;3.55;;;26.70;55.40;;;;;;6155556;28;80501;-75
2022/06/27 00:46:45;;;;;;;6.50;3.75;;;26.70;55.30;;;;;;6154958;28;82101;-75
2022/06/27 00:49:46;;;;;;;4.03;3.47;;;26.70;55.10;;;;;;6136434;28;83452;-75
2022/06/27 00:52:47;;;;;;;4.78;3.70;;;26.70;55.80;;;;;;6156431;28;81547;-73
2022/06/27 00:55:47;;;;;;;6.80;3.70;;;26.70;55.60;;;;;;6156762;28;81706;-74
2022/06/27 00:58:48;;;;;;;5.82;3.70;;;26.70;55.30;;;;;;6152143;28;86800;-75
2022/06/27 01:01:48;;;;;;;4.63;3.28;;;26.60;55.30;;;;;;6157663;28;80378;-71
2022/06/27 01:04:49;;;;;;;7.80;3.75;;;26.60;55.30;;;;;;6154487;28;83425;-83
2022/06/27 01:07:49;;;;;;;6.55;3.85;;;26.60;55.90;;;;;;6157865;28;80543;-78
2022/06/27 01:10:50;;;;;;;8.32;4.40;;;26.60;55.50;;;;;;6154963;28;81220;-77
2022/06/27 01:13:50;;;;;;;7.75;3.75;;;26.50;55.80;;;;;;6157434;28;81479;-82
2022/06/27 01:16:51;;;;;;;7.43;3.53;;;26.60;56.20;;;;;;6152602;28;80452;-82
2022/06/27 01:19:51;;;;;;;5.10;3.30;;;26.60;56.10;;;;;;6157171;28;81735;-80
2022/06/27 01:22:52;;;;;;;5.25;3.70;;;26.50;56.50;;;;;;6156970;28;83260;-81
2022/06/27 01:25:56;;;;;;;7.63;4.00;;;26.50;55.90;;;;;;6162018;28;82316;-79
2022/06/27 01:28:58;;;;;;;4.63;3.80;;;26.60;56.10;;;;;;6157802;28;83345;-83
2022/06/27 01:32:00;;;;;;;5.72;3.35;;;26.50;55.90;;;;;;6157297;28;83292;-81
2022/06/27 01:35:05;;;;;;;8.20;4.07;;;26.50;56.00;;;;;;6157271;28;82986;-81
2022/06/27 01:38:05;;;;;;;5.85;3.90;;;26.60;56.00;;;;;;6157375;28;82764;-81
2022/06/27 01:41:06;;;;;;;5.00;3.65;;;26.50;56.00;;;;;;6140628;28;81777;-81
2022/06/27 01:44:07;;;;;;;8.20;4.30;;;26.50;56.00;;;;;;6157441;28;83184;-82
2022/06/27 01:47:08;;;;;;;5.38;3.63;;;26.50;55.80;;;;;;6158006;28;83430;-84
2022/06/27 01:50:13;;;;;;;5.97;3.97;;;26.40;56.00;;;;;;6161584;28;83293;-84
2022/06/27 01:53:17;;;;;;;3.63;3.27;;;26.40;56.80;;;;;;6160477;28;81927;-85
2022/06/27 01:56:17;;;;;;;6.32;4.00;;;26.40;56.20;;;;;;6160631;28;81954;-82
2022/06/27 01:59:18;;;;;;;9.30;4.05;;;26.40;56.20;;;;;;6160673;28;83489;-79
2022/06/27 02:02:19;;;;;;;7.50;3.38;;;26.40;56.00;;;;;;6160885;28;81431;-77
2022/06/27 02:05:21;;;;;;;5.20;3.40;;;26.40;56.10;;;;;;6156335;28;83235;-76
2022/06/27 02:08:21;;;;;;;6.60;3.40;;;26.40;56.60;;;;;;6157912;28;80757;-78
2022/06/27 02:11:22;;;;;;;5.30;3.50;;;26.40;56.30;;;;;;6159287;28;82214;-75
2022/06/27 02:14:26;;;;;;;6.78;4.20;;;26.40;56.20;;;;;;6156513;28;82966;-76
2022/06/27 02:17:27;;;;;;;7.28;3.90;;;26.40;56.20;;;;;;6159899;28;82225;-79
2022/06/27 02:20:27;;;;;;;4.43;3.72;;;26.40;56.20;;;;;;6154249;28;83066;-78
2022/06/27 02:23:28;;;;;;;8.25;4.57;;;26.40;56.30;;;;;;6160531;28;81519;-80
2022/06/27 02:26:31;;;;;;;6.15;4.13;;;26.40;56.40;;;;;;6160306;28;87764;-80
2022/06/27 02:29:31;;;;;;;6.47;3.65;;;26.40;56.30;;;;;;6161895;28;80382;-76
2022/06/27 02:32:34;;;;;;;5.13;3.92;;;26.40;56.30;;;;;;6161937;28;80789;-75
2022/06/27 02:35:35;;;;;;;4.70;3.80;;;26.40;56.60;;;;;;6162464;28;80453;-77
2022/06/27 02:38:35;;;;;;;8.57;4.65;;;26.40;56.30;;;;;;6162621;28;80805;-78
2022/06/27 02:41:35;;;;;;;8.25;4.10;;;26.30;56.00;;;;;;6160771;28;83297;-80
2022/06/27 02:44:36;;;;;;;9.07;4.65;;;26.20;56.50;;;;;;6152614;28;81937;-79
2022/06/27 02:47:38;;;;;;;6.55;4.25;;;26.20;56.60;;;;;;6143639;28;83343;-81
2022/06/27 02:50:39;;;;;;;6.97;3.67;;;26.20;56.50;;;;;;6160359;28;83245;-81
2022/06/27 02:53:40;;;;;;;5.40;3.88;;;26.20;56.80;;;;;;6159375;28;83364;-83
2022/06/27 02:56:58;;;;;;;7.10;4.15;;;26.20;56.70;;;;;;6160039;28;82751;-82
2022/06/27 02:59:58;;;;;;;6.25;4.03;;;26.30;56.70;;;;;;6160193;28;81351;-83
2022/06/27 03:02:59;;;;;;;7.85;3.67;;;26.30;56.70;;;;;;6158065;28;82268;-80
2022/06/27 03:06:01;;;;;;;6.88;4.47;;;26.30;56.90;;;;;;6143580;28;83244;-81
2022/06/27 03:09:02;;;;;;;5.45;3.40;;;26.30;56.60;;;;;;6158209;28;83233;-78
2022/06/27 03:12:03;;;;;;;6.40;4.05;;;26.30;57.00;;;;;;6157551;28;83122;-76
2022/06/27 03:15:07;;;;;;;5.43;3.40;;;26.30;56.90;;;;;;6159457;28;83063;-76
2022/06/27 03:18:08;;;;;;;7.18;4.00;;;26.30;56.50;;;;;;6160407;28;82493;-77
2022/06/27 03:21:28;;;;;;;6.25;3.70;;;26.30;56.60;;;;;;6157797;28;80338;-77
2022/06/27 03:24:33;;;;;;;4.85;3.63;;;26.30;57.00;;;;;;6147721;28;83282;-76
2022/06/27 03:27:33;;;;;;;8.55;4.13;;;26.30;56.90;;;;;;6158982;28;82324;-77
2022/06/27 03:30:34;;;;;;;7.57;3.90;;;26.20;57.60;;;;;;6141156;28;83172;-81
2022/06/27 03:33:35;;;;;;;6.15;4.05;;;26.20;57.10;;;;;;6153656;28;82684;-80
2022/06/27 03:36:54;;;;;;;6.70;3.78;;;26.20;56.90;;;;;;6160400;28;82596;-78
2022/06/27 03:39:55;;;;;;;11.15;4.38;;;26.30;57.80;;;;;;6152524;28;80803;-75
2022/06/27 03:42:56;;;;;;;7.85;3.60;;;26.20;57.50;;;;;;6158666;28;83187;-76
2022/06/27 03:45:57;;;;;;;8.93;4.10;;;26.20;57.40;;;;;;6154686;28;82534;-75
2022/06/27 03:52:32;;;;;;;11.52;4.47;;;26.30;57.10;;;;;;6156089;28;81856;-80
2022/06/27 03:55:34;;;;;;;6.70;3.47;;;26.20;57.30;;;;;;6158813;28;81865;-76
2022/06/27 03:58:35;;;;;;;6.60;3.67;;;26.20;57.40;;;;;;6158506;28;83249;-70
2022/06/27 04:01:35;;;;;;;7.10;4.00;;;26.30;57.40;;;;;;6159179;28;83046;-78
2022/06/27 04:04:36;;;;;;;4.82;3.60;;;26.30;57.30;;;;;;6153919;28;83566;-74
2022/06/27 04:07:38;;;;;;;4.47;3.75;;;26.30;57.40;;;;;;6158524;28;82996;-81
2022/06/27 04:10:39;;;;;;;7.20;4.32;;;26.20;57.30;;;;;;6157572;28;83187;-72
2022/06/27 04:13:39;;;;;;;4.72;3.63;;;26.30;58.00;;;;;;6158238;28;83472;-68
2022/06/27 04:16:59;;;;;;;8.48;3.83;;;26.30;57.70;;;;;;6155994;28;80566;-72
2022/06/27 04:20:37;;;;;;;7.53;3.60;;;26.30;57.60;;;;;;6157352;28;85977;-73
2022/06/27 04:23:40;;;;;;;7.10;3.53;;;26.30;57.40;;;;;;6146458;28;83447;-72
2022/06/27 04:26:50;;;;;;;5.28;3.88;;;26.30;57.70;;;;;;6157230;28;83418;-68
2022/06/27 04:29:51;;;;;;;7.70;4.00;;;26.30;58.20;;;;;;6142498;28;82121;-69
2022/06/27 04:32:51;;;;;;;8.93;3.72;;;26.40;58.40;;;;;;6150445;28;83539;-69
2022/06/27 04:35:52;;;;;;;6.10;4.05;;;26.40;57.70;;;;;;6156877;28;83730;-68
2022/06/27 04:38:53;;;;;;;8.32;4.18;;;26.40;58.20;;;;;;6150187;28;82898;-69
2022/06/27 04:42:32;;;;;;;8.55;3.97;;;26.40;57.60;;;;;;6156257;28;81289;-67
2022/06/27 04:45:33;;;;;;;5.43;3.78;;;26.50;57.80;;;;;;6158053;28;81616;-66
2022/06/27 04:48:43;;;;;;;8.38;4.57;;;26.50;57.80;;;;;;6156591;28;82996;-70
2022/06/27 04:51:44;;;;;;;5.60;3.92;;;26.40;58.20;;;;;;6156436;28;83650;-67
2022/06/27 04:54:45;;;;;;;9.65;4.22;;;26.50;58.60;;;;;;6159347;28;80263;-66
2022/06/27 04:57:46;;;;;;;13.32;4.55;;;26.50;57.90;;;;;;6156952;28;81834;-67
2022/06/27 05:00:47;;;;;;;8.52;4.40;;;26.50;58.50;;;;;;6156332;28;82952;-68
2022/06/27 05:04:14;;;;;;;6.95;4.57;;;26.50;57.80;;;;;;6147338;28;81563;-65
2022/06/27 05:07:17;;;;;;;12.18;4.50;;;26.50;57.90;;;;;;6157828;28;83248;-66
2022/06/27 05:10:18;;;;;;;8.20;4.28;;;26.50;58.00;;;;;;6173083;28;83263;-71
2022/06/27 05:13:18;;;;;;;7.13;3.90;;;26.60;58.50;;;;;;6154803;28;83467;-67
2022/06/27 05:16:18;;;;;;;11.77;3.88;;;26.60;58.10;;;;;;6155207;28;82111;-67
2022/06/27 05:19:19;;;;;;;8.10;3.85;;;26.60;58.20;;;;;;6159213;28;82208;-71
2022/06/27 05:22:21;;;;;;;9.90;4.57;;;26.60;58.20;;;;;;6160869;28;83507;-74
2022/06/27 05:25:22;;;;;;;7.97;4.13;;;26.60;58.10;;;;;;6156824;28;81740;-70
2022/06/27 05:28:23;;;;;;;8.32;4.35;;;26.60;58.50;;;;;;6159680;28;80762;-68
2022/06/27 05:31:23;;;;;;;15.88;5.55;;;26.60;58.50;;;;;;6157197;28;83689;-68
2022/06/27 05:34:24;;;;;;;8.30;4.38;;;26.50;58.40;;;;;;6159785;28;82187;-73
2022/06/27 05:37:24;;;;;;;8.45;4.93;;;26.50;58.40;;;;;;6159384;28;81963;-70
2022/06/27 05:40:25;;;;;;;9.90;5.18;;;26.50;58.50;;;;;;6154673;28;82979;-69
2022/06/27 05:43:25;;;;;;;13.85;4.88;;;26.50;58.50;;;;;;6154927;28;83692;-69
2022/06/27 05:46:26;;;;;;;5.57;4.63;;;26.50;58.60;;;;;;6159619;28;83065;-70
2022/06/27 05:49:45;;;;;;;6.95;4.60;;;26.50;58.90;;;;;;6157643;28;80569;-70
2022/06/27 05:52:47;;;;;;;9.10;4.55;;;26.50;58.90;;;;;;6157348;28;81290;-69
2022/06/27 05:55:48;;;;;;;9.80;4.75;;;26.50;59.00;;;;;;6159662;28;82597;-70
2022/06/27 05:58:50;;;;;;;9.85;4.55;;;26.60;59.40;;;;;;6157643;28;84116;-71
2022/06/27 06:01:51;;;;;;;19.98;5.00;;;26.50;59.30;;;;;;6159791;28;80758;-71
2022/06/27 06:04:53;;;;;;;9.32;4.15;;;26.40;59.80;;;;;;6160187;28;81801;-68
2022/06/27 06:07:54;;;;;;;7.78;4.65;;;26.40;59.40;;;;;;6157597;28;84009;-67
2022/06/27 06:10:55;;;;;;;8.07;5.03;;;26.50;59.60;;;;;;6159416;28;82907;-67
2022/06/27 06:13:58;;;;;;;12.20;4.68;;;26.50;59.70;;;;;;6157102;28;83491;-70
2022/06/27 06:16:58;;;;;;;6.57;4.38;;;26.50;59.40;;;;;;6154631;28;83169;-68
2022/06/27 06:19:59;;;;;;;8.43;4.30;;;26.50;60.10;;;;;;6158742;28;83009;-73
2022/06/27 06:22:59;;;;;;;11.48;4.78;;;26.50;59.90;;;;;;6159931;28;81389;-72
2022/06/27 06:26:02;;;;;;;10.45;4.72;;;26.50;59.80;;;;;;6159701;28;83982;-74
2022/06/27 06:29:14;;;;;;;8.00;4.40;;;26.50;59.90;;;;;;6161332;28;82498;-71
2022/06/27 06:32:19;;;;;;;8.00;4.15;;;26.40;60.00;;;;;;6160326;28;81929;-71
2022/06/27 06:35:20;;;;;;;15.10;4.82;;;26.40;60.20;;;;;;6159922;28;82172;-73
2022/06/27 06:38:20;;;;;;;6.10;4.35;;;26.50;60.30;;;;;;6156840;28;80456;-71
2022/06/27 06:41:21;;;;;;;8.95;4.53;;;26.50;60.50;;;;;;6152128;28;82290;-70
2022/06/27 06:44:22;;;;;;;14.50;4.25;;;26.50;60.40;;;;;;6156758;28;82358;-72
2022/06/27 06:47:26;;;;;;;8.35;5.00;;;26.50;61.00;;;;;;6159793;28;86972;-72
2022/06/27 06:50:32;;;;;;;8.68;4.93;;;26.40;61.40;;;;;;6160020;28;85419;-71
2022/06/27 06:53:35;;;;;;;7.70;4.65;;;26.40;61.80;;;;;;6158534;28;81679;-69
2022/06/27 06:56:36;;;;;;;7.72;4.70;;;26.40;62.00;;;;;;6160601;28;80666;-70
2022/06/27 06:59:36;;;;;;;6.30;4.20;;;26.40;62.00;;;;;;6158405;28;81167;-70
2022/06/27 07:02:37;;;;;;;6.57;4.82;;;26.50;61.20;;;;;;6160612;28;80551;-69
2022/06/27 07:05:40;;;;;;;7.85;4.22;;;26.50;61.80;;;;;;6167800;28;80586;-70
2022/06/27 07:08:41;;;;;;;6.97;4.70;;;26.50;61.00;;;;;;6160262;28;81037;-69
2022/06/27 07:11:42;;;;;;;7.07;4.80;;;26.60;61.10;;;;;;6160077;28;80364;-69
2022/06/27 07:14:45;;;;;;;7.82;4.82;;;26.60;60.60;;;;;;6160186;28;80428;-69
2022/06/27 07:17:46;;;;;;;6.45;4.00;;;26.60;60.30;;;;;;6159631;28;80749;-71
2022/06/27 07:20:47;;;;;;;7.88;4.25;;;26.60;60.20;;;;;;6160035;28;80905;-70
2022/06/27 07:23:48;;;;;;;13.05;5.10;;;26.70;60.20;;;;;;6159935;28;80833;-70
2022/06/27 07:26:49;;;;;;;10.38;4.60;;;26.70;60.00;;;;;;6159493;28;80378;-70
2022/06/27 07:29:50;;;;;;;12.52;4.47;;;26.70;60.00;;;;;;6160186;28;80522;-70
2022/06/27 07:32:50;;;;;;;9.93;4.47;;;26.70;60.70;;;;;;6159757;28;81266;-70
2022/06/27 07:35:51;;;;;;;10.20;4.78;;;26.70;60.00;;;;;;6158631;28;81557;-71
2022/06/27 07:38:52;;;;;;;5.05;4.25;;;26.70;60.00;;;;;;6159846;28;80505;-71
2022/06/27 07:41:52;;;;;;;8.20;4.75;;;26.70;60.40;;;;;;6154923;28;80059;-71
2022/06/27 07:44:53;;;;;;;5.40;4.05;;;26.70;60.50;;;;;;6160091;28;80816;-71
2022/06/27 07:47:56;;;;;;;6.80;4.38;;;26.70;60.90;;;;;;6159644;28;82950;-71
2022/06/27 07:50:57;;;;;;;11.48;4.63;;;26.80;60.30;;;;;;6158220;28;80913;-71
2022/06/27 07:53:57;;;;;;;9.10;4.85;;;26.70;60.50;;;;;;6151909;28;81751;-70
2022/06/27 07:57:00;;;;;;;7.32;4.65;;;26.70;60.40;;;;;;6159916;28;80505;-70
2022/06/27 08:00:02;;;;;;;8.05;4.35;;;26.80;60.50;;;;;;6159345;28;82652;-70
2022/06/27 08:06:31;;;;;;;7.13;4.35;;;26.80;60.40;;;;;;6159314;28;80129;-71
2022/06/27 08:09:32;;;;;;;16.10;5.07;;;26.80;60.50;;;;;;6159356;28;81267;-70
2022/06/27 08:12:33;;;;;;;6.30;5.20;;;26.90;60.80;;;;;;6159793;28;80063;-71
2022/06/27 08:15:34;;;;;;;8.02;4.38;;;26.90;60.30;;;;;;6159221;28;80810;-71
2022/06/27 08:18:35;;;;;;;6.88;4.25;;;27.00;61.10;;;;;;6158477;28;80853;-71
2022/06/27 08:21:37;;;;;;;6.03;4.38;;;26.90;59.70;;;;;;6158470;28;80396;-71
2022/06/27 08:24:38;;;;;;;5.93;4.30;;;26.90;59.60;;;;;;6159298;28;82097;-72
2022/06/27 08:27:38;;;;;;;8.77;4.47;;;27.00;59.60;;;;;;6158745;28;80982;-72
2022/06/27 08:30:39;;;;;;;5.90;4.60;;;27.00;59.80;;;;;;6158798;28;83766;-71
2022/06/27 08:33:39;;;;;;;10.20;4.90;;;27.10;58.80;;;;;;6158504;28;81054;-72
2022/06/27 08:36:40;;;;;;;7.47;4.70;;;27.20;59.30;;;;;;6158223;28;80564;-72
2022/06/27 08:39:41;;;;;;;6.60;4.43;;;27.20;59.00;;;;;;6158477;28;81746;-72
2022/06/27 08:42:42;;;;;;;6.80;4.85;;;27.20;59.90;;;;;;6158750;28;80524;-72
2022/06/27 08:45:43;;;;;;;6.40;4.55;;;27.20;58.50;;;;;;6158608;28;80550;-71
2022/06/27 08:48:45;;;;;;;5.63;4.85;;;27.10;59.10;;;;;;6157143;28;80460;-72
2022/06/27 08:51:45;;;;;;;5.80;4.68;;;27.10;59.40;;;;;;6157094;28;80898;-71
2022/06/27 08:54:47;;;;;;;8.10;5.13;;;27.10;59.40;;;;;;6158369;28;81026;-71
2022/06/27 08:57:47;;;;;;;5.03;4.53;;;27.20;59.30;;;;;;6157812;28;80398;-71
2022/06/27 09:00:48;;;;;;;7.45;5.13;;;27.20;60.50;;;;;;6158586;28;81000;-71
2022/06/27 09:03:49;;;;;;;7.28;5.28;;;27.40;60.20;;;;;;6157998;28;80295;-71
2022/06/27 09:06:50;;;;;;;7.00;4.72;;;27.40;59.70;;;;;;6157709;28;81871;-71
2022/06/27 09:09:51;;;;;;;6.45;4.75;;;27.30;59.50;;;;;;6157952;28;80641;-69
2022/06/27 09:12:51;;;;;;;5.80;5.03;;;27.40;60.60;;;;;;6157611;28;82723;-71
2022/06/27 09:15:52;;;;;;;8.15;4.93;;;27.30;59.50;;;;;;6158505;28;80330;-70
2022/06/27 09:18:53;;;;;;;13.15;5.43;;;27.40;59.90;;;;;;6154316;28;80502;-71
2022/06/27 09:21:53;;;;;;;6.80;3.80;;;27.50;59.90;;;;;;6157905;28;81614;-72
2022/06/27 09:24:54;;;;;;;5.57;4.47;;;27.50;59.20;;;;;;6158013;28;80441;-72
2022/06/27 09:27:55;;;;;;;9.00;4.60;;;27.50;59.40;;;;;;6157809;28;80451;-72
2022/06/27 09:30:55;;;;;;;6.30;5.00;;;27.50;59.60;;;;;;6156922;28;80480;-71
2022/06/27 09:33:56;;;;;;;15.40;4.82;;;27.50;58.50;;;;;;6157307;28;87283;-72
2022/06/27 09:36:58;;;;;;;13.25;4.75;;;27.60;58.90;;;;;;6158131;28;80389;-72
2022/06/27 09:39:58;;;;;;;7.70;4.28;;;27.70;58.70;;;;;;6157534;28;81316;-72
2022/06/27 09:42:59;;;;;;;23.98;4.85;;;27.70;58.30;;;;;;6157476;28;80438;-72
2022/06/27 09:45:59;;;;;;;13.13;4.60;;;27.60;58.20;;;;;;6157310;28;80678;-72
2022/06/27 09:49:00;;;;;;;5.57;4.28;;;27.60;58.40;;;;;;6157574;28;80669;-72
2022/06/27 09:52:00;;;;;;;7.85;4.35;;;27.60;58.30;;;;;;6160664;28;80691;-72
2022/06/27 09:55:02;;;;;;;5.50;4.50;;;27.60;58.50;;;;;;6161065;28;80892;-71
2022/06/27 09:58:03;;;;;;;8.70;4.93;;;27.70;58.90;;;;;;6157514;28;80715;-71
2022/06/27 10:01:04;;;;;;;7.90;5.22;;;27.60;58.20;;;;;;6157356;28;80718;-71
2022/06/27 10:04:05;;;;;;;6.03;3.95;;;27.60;58.10;;;;;;6158125;28;83787;-71
2022/06/27 10:07:05;;;;;;;9.85;4.63;;;27.60;58.10;;;;;;6161691;28;80628;-71
2022/06/27 10:10:06;;;;;;;6.68;5.03;;;27.70;58.30;;;;;;6154661;28;81077;-70
2022/06/27 10:13:06;;;;;;;7.18;4.35;;;27.70;58.00;;;;;;6156046;28;80339;-71
2022/06/27 10:16:07;;;;;;;9.00;4.93;;;27.70;57.50;;;;;;6158224;28;80849;-70
2022/06/27 10:19:07;;;;;;;6.75;4.80;;;27.70;58.10;;;;;;6160874;28;80560;-71
2022/06/27 10:22:08;;;;;;;8.65;5.13;;;27.70;57.40;;;;;;6161688;28;80575;-70
2022/06/27 10:25:08;;;;;;;5.65;4.30;;;27.70;57.30;;;;;;6160952;28;80340;-70
2022/06/27 10:28:09;;;;;;;6.65;4.38;;;27.70;57.30;;;;;;6161420;28;80523;-70
2022/06/27 10:31:09;;;;;;;8.40;4.93;;;27.60;57.30;;;;;;6161431;28;80889;-71
2022/06/27 10:34:10;;;;;;;5.75;4.30;;;27.70;57.40;;;;;;6161454;28;81093;-70
2022/06/27 10:37:10;;;;;;;6.50;5.22;;;27.70;57.60;;;;;;6161066;28;80416;-70
2022/06/27 10:40:11;;;;;;;7.60;4.75;;;27.80;57.80;;;;;;6161118;28;80818;-71
2022/06/27 10:43:11;;;;;;;5.05;4.32;;;27.80;57.20;;;;;;6159537;28;82482;-71
2022/06/27 10:46:13;;;;;;;9.25;4.75;;;27.80;57.60;;;;;;6145978;28;80713;-71
2022/06/27 10:49:13;;;;;;;14.57;5.22;;;27.80;58.10;;;;;;6170733;28;80766;-71
2022/06/27 10:52:14;;;;;;;6.75;5.20;;;27.90;56.50;;;;;;6148396;28;81549;-71
2022/06/27 10:55:14;;;;;;;7.80;5.07;;;28.00;56.30;;;;;;6156448;28;80399;-70
2022/06/27 10:58:14;;;;;;;5.97;4.80;;;28.00;57.10;;;;;;6160882;28;80952;-71
2022/06/27 11:01:15;;;;;;;8.95;4.75;;;28.00;57.40;;;;;;6160540;28;80567;-70
2022/06/27 11:04:15;;;;;;;6.85;5.00;;;28.00;57.30;;;;;;6160795;28;80309;-71
2022/06/27 11:07:17;;;;;;;7.90;4.97;;;28.10;57.00;;;;;;6160189;28;80629;-71
2022/06/27 11:10:17;;;;;;;8.38;5.43;;;28.00;56.00;;;;;;6160225;28;80531;-71
2022/06/27 11:13:18;;;;;;;9.57;5.63;;;28.00;56.40;;;;;;6160500;28;80395;-70
2022/06/27 11:16:18;;;;;;;14.25;4.88;;;28.00;57.70;;;;;;6159584;28;81061;-71
2022/06/27 11:22:38;;;;;;;15.57;5.60;;;28.10;57.20;;;;;;6160478;28;80395;-71
2022/06/27 11:25:41;;;;;;;9.60;4.97;;;28.00;56.60;;;;;;6160381;28;80746;-71
2022/06/27 11:32:01;;;;;;;5.18;4.63;;;28.30;56.20;;;;;;6153096;28;80671;-72
2022/06/27 11:35:01;;;;;;;7.07;5.28;;;28.30;56.50;;;;;;6159670;28;80317;-71
2022/06/27 11:38:05;;;;;;;8.15;5.28;;;28.30;57.40;;;;;;6160133;28;80757;-71
2022/06/27 11:41:05;;;;;;;8.98;4.90;;;28.20;56.00;;;;;;6159758;28;80818;-71
2022/06/27 11:44:07;;;;;;;7.80;4.70;;;28.20;56.40;;;;;;6159433;28;80720;-71
2022/06/27 11:47:08;;;;;;;6.85;4.43;;;28.20;56.70;;;;;;6157970;28;81790;-71
2022/06/27 11:50:11;;;;;;;8.63;5.28;;;28.20;57.00;;;;;;6159730;28;80881;-71
2022/06/27 11:53:11;;;;;;;9.43;4.90;;;28.20;56.40;;;;;;6159667;28;80941;-71
2022/06/27 11:56:12;;;;;;;11.25;5.03;;;28.30;55.90;;;;;;6159429;28;80191;-71
2022/06/27 11:59:12;;;;;;;8.52;4.63;;;28.30;55.00;;;;;;6154379;28;82038;-72
2022/06/27 12:02:13;;;;;;;10.57;5.35;;;28.50;54.80;;;;;;6147905;28;80414;-72
2022/06/27 12:05:13;;;;;;;8.52;4.70;;;28.50;54.70;;;;;;6147336;28;80183;-71
2022/06/27 12:08:14;;;;;;;11.05;4.32;;;28.50;55.00;;;;;;6146694;28;80585;-69
2022/06/27 12:11:17;;;;;;;9.25;4.57;;;28.40;55.00;;;;;;6149415;28;81039;-69
2022/06/27 12:14:18;;;;;;;7.38;4.60;;;28.50;54.60;;;;;;6150413;28;80620;-70
2022/06/27 12:17:19;;;;;;;6.97;4.32;;;28.60;53.20;;;;;;6150910;28;80356;-64
2022/06/27 12:20:19;;;;;;;5.50;4.35;;;28.60;53.10;;;;;;6155534;28;80759;-65
2022/06/27 12:23:19;;;;;;;5.20;3.85;;;29.10;51.60;;;;;;6160992;28;81516;-64
2022/06/27 12:26:20;;;;;;;12.50;5.03;;;29.20;51.60;;;;;;6154854;28;80680;-64
2022/06/27 12:29:20;;;;;;;6.53;5.00;;;29.10;52.10;;;;;;6159125;28;80528;-64
2022/06/27 12:32:21;;;;;;;7.28;4.70;;;29.10;51.80;;;;;;6151165;28;80681;-68
2022/06/27 12:35:21;;;;;;;8.50;5.55;;;29.30;51.70;;;;;;6159010;28;80488;-68
2022/06/27 12:38:22;;;;;;;6.03;4.60;;;28.80;50.40;;;;;;6149498;28;80322;-68
2022/06/27 12:41:22;;;;;;;8.43;5.03;;;28.30;49.70;;;;;;6152156;28;82125;-70
2022/06/27 12:44:23;;;;;;;6.88;5.10;;;27.90;49.50;;;;;;6156814;28;82053;-72
2022/06/27 12:47:23;;;;;;;5.40;4.57;;;27.50;49.40;;;;;;6152472;28;81455;-73
2022/06/27 12:50:24;;;;;;;12.63;4.53;;;27.20;49.40;;;;;;6146230;28;81592;-72
2022/06/27 12:53:24;;;;;;;6.20;4.68;;;27.00;49.20;;;;;;6158054;28;81978;-71
2022/06/27 12:56:25;;;;;;;6.32;4.57;;;26.80;50.80;;;;;;6156098;28;84184;-69
2022/06/27 12:59:25;;;;;;;5.80;4.07;;;26.90;51.70;;;;;;6145496;28;80355;-69
2022/06/27 13:02:26;;;;;;;5.88;3.95;;;27.10;51.70;;;;;;6155129;28;80200;-69
2022/06/27 13:05:26;;;;;;;5.80;4.40;;;27.30;52.20;;;;;;6155598;28;80396;-68
2022/06/27 13:08:27;;;;;;;5.28;4.50;;;27.40;51.90;;;;;;6158625;28;80390;-68
2022/06/27 13:11:27;;;;;;;5.97;4.10;;;27.50;51.90;;;;;;6158891;28;81601;-67
2022/06/27 13:14:28;;;;;;;6.68;4.85;;;27.60;52.30;;;;;;6159217;28;80923;-68
2022/06/27 13:17:28;;;;;;;5.90;4.25;;;27.60;52.40;;;;;;6151056;28;80742;-68
2022/06/27 13:20:29;;;;;;;7.57;4.68;;;27.60;52.40;;;;;;6154983;28;83140;-67
2022/06/27 13:23:29;;;;;;;8.40;4.80;;;27.70;51.80;;;;;;6158793;28;80810;-68
2022/06/27 13:26:30;;;;;;;6.63;4.50;;;27.80;52.40;;;;;;6152344;28;80699;-69
2022/06/27 13:29:30;;;;;;;6.43;4.30;;;27.80;52.60;;;;;;6150822;28;80288;-69
2022/06/27 13:32:31;;;;;;;7.47;4.60;;;27.80;53.10;;;;;;6158384;28;80494;-68
2022/06/27 13:35:31;;;;;;;5.95;4.47;;;27.90;53.50;;;;;;6146944;28;83136;-69
2022/06/27 13:38:32;;;;;;;6.15;4.22;;;28.00;53.80;;;;;;6159056;28;81900;-69
2022/06/27 13:41:32;;;;;;;5.88;4.43;;;28.00;54.30;;;;;;6144695;28;80805;-69
2022/06/27 13:44:33;;;;;;;6.50;4.63;;;28.00;54.20;;;;;;6150586;28;81365;-69
2022/06/27 13:47:33;;;;;;;6.68;4.18;;;28.00;53.60;;;;;;6159089;28;84690;-69
2022/06/27 13:50:35;;;;;;;7.07;4.57;;;28.00;53.60;;;;;;6144333;28;80798;-70
2022/06/27 13:53:36;;;;;;;5.68;4.78;;;28.10;53.60;;;;;;6144891;28;80456;-69
2022/06/27 13:56:36;;;;;;;5.15;4.60;;;28.10;53.90;;;;;;6146246;28;80631;-68
2022/06/27 13:59:37;;;;;;;7.38;4.35;;;28.10;54.10;;;;;;6145543;28;80777;-70
2022/06/27 14:02:37;;;;;;;6.07;4.47;;;28.20;53.90;;;;;;6141538;28;80683;-70
2022/06/27 14:05:38;;;;;;;9.13;4.72;;;28.20;54.20;;;;;;6152267;28;80825;-71
2022/06/27 14:08:38;;;;;;;6.10;4.47;;;28.20;54.70;;;;;;6144746;28;81457;-70
2022/06/27 14:11:39;;;;;;;6.75;4.70;;;28.20;54.60;;;;;;6143386;28;80847;-70
2022/06/27 14:14:39;;;;;;;5.35;4.70;;;28.20;54.30;;;;;;6148064;28;80684;-69
2022/06/27 14:17:40;;;;;;;4.70;4.18;;;28.20;55.30;;;;;;6154332;28;81580;-68
2022/06/27 14:20:40;;;;;;;8.27;4.60;;;28.20;54.80;;;;;;6150997;28;80889;-70
2022/06/27 14:23:41;;;;;;;5.60;4.25;;;28.20;54.80;;;;;;6154420;28;80756;-68
2022/06/27 14:26:41;;;;;;;6.22;4.35;;;28.20;55.00;;;;;;6155692;28;83218;-69
2022/06/27 14:29:42;;;;;;;7.13;4.57;;;28.20;55.20;;;;;;6157390;28;80295;-69
2022/06/27 14:32:42;;;;;;;5.07;3.92;;;28.20;55.50;;;;;;6143931;28;80678;-69
2022/06/27 14:35:43;;;;;;;9.23;4.20;;;28.20;55.90;;;;;;6161405;28;80611;-68
2022/06/27 14:38:43;;;;;;;5.53;4.45;;;28.20;55.00;;;;;;6156034;28;82209;-70
2022/06/27 14:41:46;;;;;;;6.47;4.88;;;28.20;54.80;;;;;;6153428;28;80395;-70
2022/06/27 14:44:46;;;;;;;7.85;5.45;;;28.20;54.80;;;;;;6161441;28;80364;-72
2022/06/27 14:47:49;;;;;;;7.88;5.45;;;28.20;54.50;;;;;;6161201;28;80935;-72
2022/06/27 14:50:49;;;;;;;5.68;4.82;;;28.30;54.70;;;;;;6161677;28;80445;-71
2022/06/27 14:53:50;;;;;;;8.13;5.55;;;28.30;54.80;;;;;;6161041;28;81849;-71
2022/06/27 14:56:50;;;;;;;14.68;6.60;;;28.30;54.80;;;;;;6161453;28;81753;-72
2022/06/27 14:59:52;;;;;;;6.90;6.20;;;28.30;56.00;;;;;;6161500;28;80425;-70
2022/06/27 15:02:52;;;;;;;14.02;6.30;;;28.30;55.50;;;;;;6152414;28;80171;-71
2022/06/27 15:05:53;;;;;;;9.43;6.50;;;28.30;55.90;;;;;;6159882;28;80457;-71
2022/06/27 15:08:53;;;;;;;8.70;6.28;;;28.30;56.00;;;;;;6154012;28;80537;-69
2022/06/27 15:11:54;;;;;;;17.88;6.28;;;28.30;56.20;;;;;;6151016;28;81509;-70
2022/06/27 15:14:55;;;;;;;6.60;5.90;;;28.30;56.30;;;;;;6161615;28;81352;-70
2022/06/27 15:17:56;;;;;;;9.63;5.68;;;28.30;56.60;;;;;;6149484;28;81376;-71
2022/06/27 15:20:57;;;;;;;6.05;5.45;;;28.40;58.20;;;;;;6154875;28;80241;-73
2022/06/27 15:23:57;;;;;;;7.43;5.93;;;28.30;58.00;;;;;;6154440;28;83376;-72
2022/06/27 15:26:58;;;;;;;10.18;5.95;;;28.30;58.20;;;;;;6155682;28;80533;-72
2022/06/27 15:29:58;;;;;;;9.13;5.28;;;28.40;57.50;;;;;;6162135;28;82034;-73
2022/06/27 15:32:59;;;;;;;5.22;4.72;;;28.30;57.00;;;;;;6161312;28;80370;-71
2022/06/27 15:35:59;;;;;;;5.85;5.20;;;28.30;56.80;;;;;;6161461;28;80979;-71
2022/06/27 15:39:00;;;;;;;7.55;4.80;;;28.30;56.50;;;;;;6160902;28;80691;-72
2022/06/27 15:42:00;;;;;;;5.53;4.53;;;28.30;56.20;;;;;;6160943;28;80635;-71
2022/06/27 15:45:00;;;;;;;16.02;5.68;;;28.30;56.50;;;;;;6160928;28;80247;-70
2022/06/27 15:48:01;;;;;;;7.75;4.63;;;28.30;57.20;;;;;;6160603;28;80853;-71
2022/06/27 15:51:04;;;;;;;7.40;4.22;;;28.40;55.00;;;;;;6159155;28;81773;-70
2022/06/27 15:54:05;;;;;;;5.93;4.50;;;28.40;56.70;;;;;;6156231;28;80923;-72
2022/06/27 15:57:05;;;;;;;7.13;4.35;;;28.40;55.00;;;;;;6158715;28;80981;-70